Time;durP1;ratioP1;P1;durP2;ratioP2;P2;SDS_P1;SDS_P2;PMS_P1;PMS_P2;Temp;Humidity;BMP_temperature;BMP_pressure;BME280_temperature;BME280_humidity;BME280_pressure;Samples;Min_cycle;Max_cycle;Signal;HPM_P1;HPM_P2
2021/07/21 00:02:11;;;;;;;32.47;19.10;;;21.10;99.90;;;;;;4996999;28;20018;-79
2021/07/21 00:04:37;;;;;;;37.85;19.05;;;21.10;99.90;;;;;;4996730;28;20060;-80
2021/07/21 00:07:05;;;;;;;35.83;20.80;;;21.00;99.90;;;;;;4996431;28;20022;-80
2021/07/21 00:09:31;;;;;;;30.00;19.88;;;21.10;99.90;;;;;;4996096;28;20025;-80
2021/07/21 00:14:41;;;;;;;33.75;19.92;;;21.00;99.90;;;;;;4995243;28;20046;-80
2021/07/21 00:17:17;;;;;;;31.45;21.10;;;21.00;99.90;;;;;;4995962;28;20750;-80
2021/07/21 00:22:28;;;;;;;27.23;19.67;;;21.00;99.90;;;;;;4994389;28;20045;-80
2021/07/21 00:24:53;;;;;;;27.90;17.63;;;21.10;99.90;;;;;;4996730;28;20452;-80
2021/07/21 00:27:19;;;;;;;27.00;16.98;;;21.10;99.90;;;;;;4996454;28;20461;-80
2021/07/21 00:29:45;;;;;;;41.80;25.92;;;21.10;99.90;;;;;;4996084;28;20026;-80
2021/07/21 00:32:11;;;;;;;29.30;18.95;;;21.10;99.90;;;;;;4994939;28;20483;-80
2021/07/21 00:34:36;;;;;;;30.10;21.40;;;21.10;99.90;;;;;;5001793;28;20034;-79
2021/07/21 00:37:02;;;;;;;27.15;19.15;;;21.10;99.90;;;;;;5007144;28;20519;-79
2021/07/21 00:39:28;;;;;;;26.23;17.42;;;21.20;99.90;;;;;;5002781;28;20153;-80
2021/07/21 00:41:53;;;;;;;27.88;18.45;;;21.20;99.90;;;;;;4996244;28;20101;-80
2021/07/21 00:44:19;;;;;;;25.42;16.23;;;21.20;99.90;;;;;;4996446;28;20355;-80
2021/07/21 00:46:45;;;;;;;21.42;16.52;;;21.10;99.90;;;;;;4996165;28;20034;-80
2021/07/21 00:49:10;;;;;;;26.80;16.73;;;21.10;99.90;;;;;;4996296;28;20029;-80
2021/07/21 00:51:38;;;;;;;22.73;16.67;;;21.20;99.90;;;;;;4996355;28;20374;-80
2021/07/21 00:54:05;;;;;;;19.50;15.05;;;21.20;99.90;;;;;;4996442;28;20583;-79
2021/07/21 00:56:33;;;;;;;23.25;15.35;;;21.20;99.90;;;;;;4978824;28;20080;-80
2021/07/21 00:58:59;;;;;;;19.55;14.32;;;21.30;99.90;;;;;;4996585;28;20049;-79
2021/07/21 01:01:25;;;;;;;17.17;12.88;;;21.30;99.90;;;;;;4996151;28;20109;-80
2021/07/21 01:03:50;;;;;;;18.50;13.75;;;21.30;99.90;;;;;;4996453;28;20153;-80
2021/07/21 01:06:16;;;;;;;23.25;13.80;;;21.40;99.90;;;;;;4996268;28;20030;-80
2021/07/21 01:08:42;;;;;;;25.85;13.80;;;21.40;99.90;;;;;;4996389;28;20030;-79
2021/07/21 01:11:21;;;;;;;20.13;13.23;;;21.40;99.90;;;;;;4996432;28;20049;-80
2021/07/21 01:14:03;;;;;;;22.90;14.02;;;21.50;99.90;;;;;;4996474;28;20022;-79
2021/07/21 01:16:33;;;;;;;21.33;14.63;;;21.40;99.90;;;;;;4996430;28;20025;-80
2021/07/21 01:19:06;;;;;;;22.17;14.55;;;21.50;99.90;;;;;;4996345;28;20026;-80
2021/07/21 01:21:41;;;;;;;22.15;14.95;;;21.50;99.90;;;;;;4996560;28;20046;-80
2021/07/21 01:24:18;;;;;;;23.13;15.13;;;21.50;99.90;;;;;;4996564;28;20022;-80
2021/07/21 01:26:49;;;;;;;25.40;14.88;;;21.50;99.90;;;;;;4996806;28;20101;-80
2021/07/21 01:29:21;;;;;;;20.08;13.88;;;21.50;99.90;;;;;;5001282;28;20026;-80
2021/07/21 01:31:50;;;;;;;26.73;15.80;;;21.50;99.90;;;;;;4996713;28;20105;-80
2021/07/21 01:34:17;;;;;;;28.48;15.43;;;21.50;99.90;;;;;;4995540;28;20093;-80
2021/07/21 01:36:49;;;;;;;26.25;15.52;;;21.50;99.90;;;;;;4995195;28;20035;-80
2021/07/21 01:39:17;;;;;;;27.83;16.92;;;21.50;99.90;;;;;;4995369;28;20026;-80
2021/07/21 01:41:50;;;;;;;23.25;15.32;;;21.50;99.90;;;;;;4995127;28;20037;-79
2021/07/21 01:44:21;;;;;;;30.10;18.40;;;21.60;99.90;;;;;;4995187;28;20021;-79
2021/07/21 01:46:51;;;;;;;25.58;18.40;;;21.60;99.90;;;;;;4995349;28;20025;-79
2021/07/21 01:49:19;;;;;;;24.90;16.40;;;21.60;99.90;;;;;;4995442;28;20069;-79
2021/07/21 01:51:47;;;;;;;23.33;15.57;;;21.60;99.90;;;;;;4995234;28;20050;-79
2021/07/21 01:54:14;;;;;;;24.83;13.90;;;21.60;99.90;;;;;;4995409;28;20088;-79
2021/07/21 01:56:40;;;;;;;18.60;12.77;;;21.60;99.90;;;;;;4995340;28;20384;-79
2021/07/21 01:59:08;;;;;;;18.85;13.57;;;21.60;99.90;;;;;;4995167;28;20023;-79
2021/07/21 02:01:34;;;;;;;23.27;14.13;;;21.60;99.90;;;;;;4995120;28;20053;-79
2021/07/21 02:04:02;;;;;;;18.92;13.48;;;21.60;99.90;;;;;;4995009;28;20030;-79
2021/07/21 02:06:32;;;;;;;20.40;13.93;;;21.60;99.90;;;;;;4995213;28;20026;-79
2021/07/21 02:08:59;;;;;;;23.13;14.15;;;21.60;99.90;;;;;;4995073;28;20026;-80
2021/07/21 02:11:26;;;;;;;18.92;12.65;;;21.60;99.90;;;;;;4977406;28;20050;-79
2021/07/21 02:13:57;;;;;;;17.98;12.30;;;21.60;99.90;;;;;;4994711;28;20033;-80
2021/07/21 02:16:24;;;;;;;24.27;12.07;;;21.60;99.90;;;;;;4994585;28;20226;-79
2021/07/21 02:18:56;;;;;;;16.95;10.80;;;21.60;99.90;;;;;;4994468;28;20027;-79
2021/07/21 02:21:23;;;;;;;16.20;11.88;;;21.60;99.90;;;;;;4994522;28;20120;-79
2021/07/21 02:23:51;;;;;;;18.80;11.90;;;21.70;99.90;;;;;;4994761;28;20018;-79
2021/07/21 02:26:18;;;;;;;15.38;11.50;;;21.70;99.90;;;;;;4994410;28;20081;-80
2021/07/21 02:28:45;;;;;;;20.48;12.32;;;21.70;99.90;;;;;;4994242;28;20030;-72
2021/07/21 02:31:16;;;;;;;19.58;12.23;;;21.70;99.90;;;;;;4992874;28;20033;-72
2021/07/21 02:33:51;;;;;;;20.35;14.57;;;21.80;99.90;;;;;;4992928;28;20109;-72
2021/07/21 02:36:18;;;;;;;26.45;18.42;;;21.80;99.90;;;;;;4992928;28;20460;-72
2021/07/21 02:38:46;;;;;;;29.75;19.73;;;21.80;99.90;;;;;;4975525;28;20037;-72
2021/07/21 02:41:11;;;;;;;23.35;16.25;;;21.70;99.90;;;;;;4992806;28;20037;-72
2021/07/21 02:43:37;;;;;;;23.02;14.70;;;21.80;99.90;;;;;;4993023;28;20034;-72
2021/07/21 02:46:03;;;;;;;17.75;12.90;;;21.80;99.90;;;;;;4992836;28;20026;-72
2021/07/21 02:48:29;;;;;;;17.92;12.05;;;21.80;99.90;;;;;;4992624;28;20044;-72
2021/07/21 02:51:01;;;;;;;14.60;9.23;;;21.80;99.90;;;;;;4974875;28;20046;-72
2021/07/21 02:53:32;;;;;;;13.25;9.73;;;21.80;99.90;;;;;;4992528;28;20033;-72
2021/07/21 02:56:17;;;;;;;15.95;11.35;;;21.80;99.90;;;;;;4991906;28;20117;-72
2021/07/21 02:58:51;;;;;;;15.25;9.55;;;21.80;99.90;;;;;;4992336;28;20030;-72
2021/07/21 03:01:21;;;;;;;9.95;7.57;;;21.80;99.90;;;;;;4992422;28;20097;-72
2021/07/21 03:03:49;;;;;;;12.63;8.82;;;21.80;99.90;;;;;;4992500;28;20022;-72
2021/07/21 03:06:19;;;;;;;9.90;7.40;;;21.80;99.90;;;;;;4992301;28;20026;-72
2021/07/21 03:08:48;;;;;;;12.65;7.82;;;21.90;99.90;;;;;;4992310;28;20023;-72
2021/07/21 03:11:17;;;;;;;11.43;7.18;;;21.80;99.90;;;;;;4992211;28;20366;-72
2021/07/21 03:13:49;;;;;;;11.25;7.60;;;21.90;99.90;;;;;;4992057;28;20054;-72
2021/07/21 03:16:20;;;;;;;11.80;8.98;;;21.90;99.90;;;;;;4992140;28;20018;-72
2021/07/21 03:18:48;;;;;;;12.97;9.27;;;21.90;99.90;;;;;;4992515;28;20030;-70
2021/07/21 03:21:17;;;;;;;10.00;7.38;;;21.90;99.90;;;;;;4992513;28;20030;-71
2021/07/21 03:23:44;;;;;;;12.25;8.50;;;21.90;99.90;;;;;;4992658;28;20465;-71
2021/07/21 03:26:11;;;;;;;10.32;8.27;;;21.90;99.90;;;;;;4992696;28;20018;-72
2021/07/21 03:28:38;;;;;;;10.90;8.45;;;21.90;99.90;;;;;;4992111;28;20022;-72
2021/07/21 03:31:05;;;;;;;14.10;9.02;;;21.90;99.90;;;;;;4992098;28;20045;-72
2021/07/21 03:33:32;;;;;;;10.90;8.70;;;22.00;99.90;;;;;;4992289;28;20033;-72
2021/07/21 03:36:01;;;;;;;11.88;8.88;;;22.00;99.90;;;;;;4992213;28;20034;-72
2021/07/21 03:38:29;;;;;;;12.18;9.63;;;22.00;99.90;;;;;;4992236;28;20559;-72
2021/07/21 03:40:56;;;;;;;12.35;9.13;;;22.00;99.90;;;;;;4992196;28;20477;-72
2021/07/21 03:43:23;;;;;;;12.45;8.63;;;22.00;99.90;;;;;;4991992;28;20358;-72
2021/07/21 03:45:51;;;;;;;11.65;8.82;;;22.00;99.90;;;;;;4992011;28;20050;-71
2021/07/21 03:48:17;;;;;;;9.27;8.30;;;22.10;99.90;;;;;;4992074;28;20042;-71
2021/07/21 03:50:44;;;;;;;10.68;7.88;;;22.10;99.90;;;;;;4992019;28;20039;-71
2021/07/21 03:53:10;;;;;;;12.20;8.23;;;22.20;99.90;;;;;;4992011;28;20026;-72
2021/07/21 03:55:38;;;;;;;10.82;7.93;;;22.20;99.90;;;;;;4991888;28;20038;-72
2021/07/21 03:58:04;;;;;;;12.98;8.40;;;22.20;99.90;;;;;;4993205;28;20034;-80
2021/07/21 04:00:30;;;;;;;15.00;7.70;;;22.20;99.90;;;;;;4993611;28;20034;-79
2021/07/21 04:03:00;;;;;;;14.57;8.40;;;22.30;99.90;;;;;;4993544;28;20026;-80
2021/07/21 04:05:27;;;;;;;13.13;9.05;;;22.20;99.90;;;;;;4993414;28;20029;-80
2021/07/21 04:07:54;;;;;;;11.80;7.72;;;22.20;99.90;;;;;;4978624;28;20030;-79
2021/07/21 04:10:21;;;;;;;11.30;9.02;;;22.30;99.90;;;;;;4997092;28;20018;-80
2021/07/21 04:12:51;;;;;;;11.85;7.80;;;22.40;99.90;;;;;;4996825;28;20026;-80
2021/07/21 04:15:21;;;;;;;13.45;8.20;;;22.40;99.90;;;;;;4997290;28;20412;-82
2021/07/21 04:17:48;;;;;;;10.73;7.75;;;22.50;99.90;;;;;;4997246;28;20022;-80
2021/07/21 04:20:15;;;;;;;10.82;7.32;;;22.50;99.90;;;;;;4996406;28;20524;-75
2021/07/21 04:22:41;;;;;;;13.52;8.65;;;22.50;99.90;;;;;;4995168;28;20031;-75
2021/07/21 04:25:10;;;;;;;11.25;8.00;;;22.60;99.90;;;;;;4995016;28;20461;-73
2021/07/21 04:27:38;;;;;;;13.93;8.02;;;22.70;99.90;;;;;;4994848;28;20361;-74
2021/07/21 04:30:05;;;;;;;10.18;6.78;;;22.70;99.80;;;;;;4994717;28;20026;-73
2021/07/21 04:32:32;;;;;;;12.50;6.50;;;22.80;99.50;;;;;;4994358;28;20022;-73
2021/07/21 04:34:58;;;;;;;9.32;6.93;;;22.90;98.60;;;;;;4995219;28;20428;-72
2021/07/21 04:37:24;;;;;;;9.63;7.03;;;22.90;98.30;;;;;;4994143;28;20038;-73
2021/07/21 04:39:52;;;;;;;9.07;6.88;;;22.80;97.90;;;;;;4994320;28;20026;-72
2021/07/21 04:42:18;;;;;;;13.50;6.85;;;22.80;97.70;;;;;;4994457;28;20019;-74
2021/07/21 04:44:46;;;;;;;13.25;6.30;;;22.90;97.90;;;;;;4977146;28;20033;-72
2021/07/21 04:47:12;;;;;;;8.52;6.88;;;22.90;98.40;;;;;;4994662;28;20124;-72
2021/07/21 04:49:42;;;;;;;10.48;7.13;;;23.00;98.10;;;;;;4994508;28;20493;-73
2021/07/21 04:52:11;;;;;;;9.63;6.80;;;23.00;97.50;;;;;;4994368;28;20091;-73
2021/07/21 04:54:36;;;;;;;9.80;6.93;;;23.00;96.90;;;;;;4994569;28;20018;-72
2021/07/21 04:57:02;;;;;;;7.93;6.82;;;23.00;97.10;;;;;;4995352;28;20035;-80
2021/07/21 04:59:28;;;;;;;10.02;6.95;;;23.10;97.10;;;;;;4997457;28;20150;-80
2021/07/21 05:01:54;;;;;;;10.00;7.30;;;23.10;97.00;;;;;;4995889;28;20400;-81
2021/07/21 05:04:20;;;;;;;14.15;7.75;;;23.20;96.90;;;;;;4996314;28;20520;-81
2021/07/21 05:06:46;;;;;;;15.52;7.82;;;23.20;96.70;;;;;;4995733;28;20109;-81
2021/07/21 05:09:13;;;;;;;10.52;7.82;;;23.30;96.10;;;;;;4996332;28;20098;-80
2021/07/21 05:11:39;;;;;;;10.13;7.55;;;23.30;96.20;;;;;;4996328;28;20030;-81
2021/07/21 05:14:06;;;;;;;9.40;7.25;;;23.50;96.70;;;;;;4995890;28;20026;-81
2021/07/21 05:16:32;;;;;;;13.27;7.75;;;23.70;96.50;;;;;;4995463;28;20452;-81
2021/07/21 05:18:58;;;;;;;11.48;7.47;;;23.90;96.30;;;;;;4995185;28;20033;-79
2021/07/21 05:21:24;;;;;;;10.85;7.47;;;24.00;95.50;;;;;;4995700;28;20096;-81
2021/07/21 05:23:51;;;;;;;10.98;7.53;;;24.20;95.10;;;;;;4994245;28;20473;-81
2021/07/21 05:26:17;;;;;;;7.38;6.65;;;24.80;98.20;;;;;;4993640;28;20022;-81
2021/07/21 05:28:42;;;;;;;9.85;6.28;;;26.60;99.40;;;;;;4976763;28;20022;-81
2021/07/21 05:31:09;;;;;;;8.73;6.75;;;28.70;95.80;;;;;;4993810;28;20534;-73
2021/07/21 05:33:35;;;;;;;8.32;7.13;;;30.50;90.40;;;;;;4993375;28;20033;-73
2021/07/21 05:36:03;;;;;;;8.40;7.28;;;31.60;83.00;;;;;;4993073;28;20173;-73
2021/07/21 05:38:29;;;;;;;8.50;7.35;;;32.50;78.50;;;;;;4993142;28;20027;-73
2021/07/21 05:40:55;;;;;;;11.10;8.68;;;33.50;75.60;;;;;;4993070;28;20026;-73
2021/07/21 05:43:25;;;;;;;11.70;8.77;;;34.40;71.50;;;;;;4992934;28;20408;-74
2021/07/21 05:45:51;;;;;;;11.85;8.35;;;34.30;68.30;;;;;;4993063;28;20019;-72
2021/07/21 05:48:16;;;;;;;12.63;9.80;;;34.30;67.50;;;;;;4991588;28;20022;-73
2021/07/21 05:50:42;;;;;;;12.65;10.30;;;34.90;66.00;;;;;;4991715;28;20350;-72
2021/07/21 05:53:08;;;;;;;12.95;9.73;;;35.00;64.40;;;;;;4991982;28;20029;-73
2021/07/21 05:55:34;;;;;;;12.32;10.20;;;35.10;63.80;;;;;;4991758;28;20449;-73
2021/07/21 05:57:59;;;;;;;12.10;9.27;;;35.90;64.20;;;;;;4974228;28;20498;-73
2021/07/21 06:00:25;;;;;;;17.10;11.63;;;36.70;62.20;;;;;;4991667;28;20436;-74
2021/07/21 06:02:51;;;;;;;20.80;11.20;;;37.30;60.70;;;;;;4991002;28;20208;-73
2021/07/21 06:05:17;;;;;;;19.33;10.15;;;37.90;59.70;;;;;;4991591;28;20564;-73
2021/07/21 06:07:42;;;;;;;15.68;11.20;;;38.80;58.20;;;;;;4991418;28;20029;-73
2021/07/21 06:10:09;;;;;;;13.43;10.95;;;39.40;56.20;;;;;;4991191;28;20050;-72
2021/07/21 06:12:35;;;;;;;13.52;11.15;;;40.00;54.60;;;;;;4991622;28;20022;-76
2021/07/21 06:15:02;;;;;;;13.73;11.52;;;40.20;53.30;;;;;;4991156;28;20038;-74
2021/07/21 06:17:28;;;;;;;14.20;11.45;;;40.50;52.60;;;;;;4991273;28;20022;-74
2021/07/21 06:19:54;;;;;;;17.02;12.80;;;40.90;51.60;;;;;;4992708;28;20089;-73
2021/07/21 06:22:20;;;;;;;16.85;13.10;;;41.10;50.60;;;;;;4990956;28;20037;-73
2021/07/21 06:24:46;;;;;;;13.38;12.02;;;40.80;49.40;;;;;;4991255;28;20026;-74
2021/07/21 06:27:12;;;;;;;16.55;12.35;;;40.00;49.00;;;;;;4990910;28;20449;-74
2021/07/21 06:29:38;;;;;;;16.17;13.02;;;39.10;49.50;;;;;;4990198;28;20046;-74
2021/07/21 06:32:05;;;;;;;16.30;13.18;;;38.30;50.00;;;;;;4991102;28;20030;-73
2021/07/21 06:34:30;;;;;;;15.55;12.52;;;37.70;50.30;;;;;;4991217;28;20113;-73
2021/07/21 06:36:56;;;;;;;16.80;14.35;;;37.30;50.80;;;;;;4990758;28;20032;-75
2021/07/21 06:39:22;;;;;;;18.23;14.00;;;37.20;51.00;;;;;;4973323;28;20360;-74
2021/07/21 06:41:48;;;;;;;17.17;13.65;;;36.80;50.80;;;;;;4990955;28;20030;-74
2021/07/21 06:44:14;;;;;;;19.45;13.20;;;36.20;51.20;;;;;;4991270;28;20028;-75
2021/07/21 06:46:40;;;;;;;17.73;13.68;;;35.60;52.00;;;;;;4991141;28;20106;-75
2021/07/21 06:49:05;;;;;;;17.80;14.00;;;35.10;52.50;;;;;;4991346;28;20142;-74
2021/07/21 06:51:31;;;;;;;18.50;13.05;;;34.50;53.10;;;;;;4991539;28;20279;-75
2021/07/21 06:53:57;;;;;;;17.80;13.02;;;33.90;53.70;;;;;;4990958;28;20435;-74
2021/07/21 06:56:23;;;;;;;17.13;12.77;;;33.50;54.50;;;;;;4990929;28;20029;-77
2021/07/21 06:58:50;;;;;;;17.13;13.10;;;32.90;55.20;;;;;;4973721;28;20022;-75
2021/07/21 07:01:18;;;;;;;15.18;12.82;;;32.40;56.10;;;;;;4991008;28;20053;-75
2021/07/21 07:03:44;;;;;;;18.85;13.07;;;31.90;56.70;;;;;;4990449;28;20033;-74
2021/07/21 07:06:10;;;;;;;17.88;13.20;;;31.40;57.70;;;;;;4990655;28;20457;-75
2021/07/21 07:08:36;;;;;;;17.60;13.18;;;31.00;58.30;;;;;;4990379;28;20026;-74
2021/07/21 07:11:01;;;;;;;20.95;13.55;;;30.60;59.90;;;;;;4990647;28;20023;-78
2021/07/21 07:13:27;;;;;;;16.67;13.23;;;30.30;60.10;;;;;;4988176;28;20029;-75
2021/07/21 07:15:55;;;;;;;18.30;13.73;;;30.20;60.80;;;;;;4990854;28;20102;-73
2021/07/21 07:18:21;;;;;;;21.85;13.70;;;30.10;61.30;;;;;;4990780;28;20034;-75
2021/07/21 07:20:50;;;;;;;24.08;13.95;;;30.10;61.50;;;;;;4990630;28;20390;-76
2021/07/21 07:23:16;;;;;;;18.88;12.88;;;30.20;61.80;;;;;;4990728;28;20026;-74
2021/07/21 07:25:42;;;;;;;21.35;14.35;;;30.10;61.40;;;;;;4990419;28;20096;-75
2021/07/21 07:28:08;;;;;;;18.15;13.50;;;30.10;61.60;;;;;;4991754;28;20160;-75
2021/07/21 07:30:34;;;;;;;20.70;14.85;;;29.90;61.80;;;;;;4991543;28;20486;-75
2021/07/21 07:33:01;;;;;;;19.23;12.82;;;29.80;62.10;;;;;;4991907;28;20031;-74
2021/07/21 07:35:27;;;;;;;17.33;13.48;;;29.60;62.60;;;;;;4991528;28;20030;-76
2021/07/21 07:37:53;;;;;;;19.92;13.82;;;29.70;63.10;;;;;;4991672;28;20045;-73
2021/07/21 07:40:19;;;;;;;18.33;13.55;;;29.70;63.00;;;;;;4991806;28;20022;-73
2021/07/21 07:42:45;;;;;;;17.15;12.40;;;29.80;62.90;;;;;;4995342;28;20209;-74
2021/07/21 07:45:12;;;;;;;21.90;13.70;;;29.80;62.90;;;;;;4995670;28;20460;-72
2021/07/21 07:47:38;;;;;;;16.85;13.45;;;29.80;62.60;;;;;;4995835;28;20483;-76
2021/07/21 07:50:06;;;;;;;19.98;14.40;;;29.60;62.80;;;;;;4978095;28;20034;-77
2021/07/21 07:52:33;;;;;;;18.55;13.48;;;29.40;63.20;;;;;;4998534;28;20034;-87
2021/07/21 07:55:00;;;;;;;17.25;13.20;;;29.40;64.00;;;;;;4996956;28;20502;-86
2021/07/21 07:57:25;;;;;;;20.88;13.48;;;29.30;64.10;;;;;;4997366;28;20026;-87
2021/07/21 07:59:51;;;;;;;17.30;13.90;;;29.40;64.20;;;;;;4996373;28;20476;-84
2021/07/21 08:02:17;;;;;;;22.67;13.23;;;29.50;64.40;;;;;;4996689;28;20022;-81
2021/07/21 08:04:42;;;;;;;17.42;13.77;;;29.50;64.20;;;;;;4997310;28;20019;-88
2021/07/21 08:07:08;;;;;;;17.95;12.95;;;29.70;64.00;;;;;;4982695;28;20114;-89
2021/07/21 08:09:34;;;;;;;18.08;14.20;;;29.80;63.60;;;;;;4999306;28;20022;-87
2021/07/21 08:12:00;;;;;;;23.20;14.40;;;30.10;63.60;;;;;;4999884;28;20033;-86
2021/07/21 08:14:26;;;;;;;16.58;14.13;;;30.40;63.20;;;;;;5000985;28;20041;-88
2021/07/21 08:16:53;;;;;;;20.85;14.07;;;30.60;62.60;;;;;;5001219;28;20030;-87
2021/07/21 08:19:21;;;;;;;17.80;13.25;;;30.90;62.10;;;;;;5004517;28;20023;-87
2021/07/21 08:21:47;;;;;;;18.25;13.32;;;31.10;61.60;;;;;;5002378;28;20161;-87
2021/07/21 08:24:14;;;;;;;18.13;13.82;;;31.40;61.40;;;;;;4998969;28;20034;-88
2021/07/21 08:26:40;;;;;;;17.50;12.25;;;32.00;60.90;;;;;;4998387;28;20094;-87
2021/07/21 08:29:07;;;;;;;15.55;13.20;;;32.70;60.10;;;;;;4996875;28;20034;-77
2021/07/21 08:31:34;;;;;;;16.25;12.07;;;33.20;58.80;;;;;;4994662;28;20019;-77
2021/07/21 08:34:01;;;;;;;16.40;12.45;;;33.40;57.70;;;;;;4994494;28;20049;-76
2021/07/21 08:36:31;;;;;;;16.90;14.07;;;33.60;57.40;;;;;;4995184;28;20026;-76
2021/07/21 08:38:57;;;;;;;22.55;13.27;;;33.70;57.10;;;;;;4977806;28;20105;-77
2021/07/21 08:41:26;;;;;;;25.42;14.02;;;33.80;56.80;;;;;;4994761;28;20122;-76
2021/07/21 08:43:52;;;;;;;18.52;14.40;;;33.80;56.60;;;;;;4994682;28;20029;-77
2021/07/21 08:46:17;;;;;;;18.83;13.63;;;33.70;56.50;;;;;;4977071;28;20384;-78
2021/07/21 08:48:43;;;;;;;17.27;13.43;;;33.60;56.30;;;;;;4995032;28;20026;-77
2021/07/21 08:51:12;;;;;;;16.85;12.75;;;33.50;56.30;;;;;;4994161;28;20398;-76
2021/07/21 08:53:38;;;;;;;19.00;13.50;;;33.40;56.30;;;;;;4993629;28;20103;-76
2021/07/21 08:56:04;;;;;;;26.75;13.40;;;33.40;56.50;;;;;;4976847;28;20128;-77
2021/07/21 08:58:31;;;;;;;16.67;12.95;;;33.40;56.50;;;;;;4994093;28;20090;-76
2021/07/21 09:00:57;;;;;;;18.08;14.02;;;33.40;56.30;;;;;;4994077;28;20038;-77
2021/07/21 09:03:23;;;;;;;19.02;13.02;;;33.50;56.20;;;;;;4994251;28;20065;-76
2021/07/21 09:05:50;;;;;;;17.35;13.13;;;33.70;56.10;;;;;;4994115;28;20042;-76
2021/07/21 09:08:17;;;;;;;20.40;13.25;;;34.00;55.80;;;;;;4994049;28;20026;-77
2021/07/21 09:10:45;;;;;;;15.52;11.98;;;34.20;55.30;;;;;;4993936;28;20022;-76
2021/07/21 09:13:13;;;;;;;16.52;13.65;;;34.30;54.40;;;;;;4993932;28;20377;-76
2021/07/21 09:15:39;;;;;;;22.13;13.80;;;34.40;54.40;;;;;;4993709;28;20448;-77
2021/07/21 09:18:15;;;;;;;22.77;13.95;;;34.30;54.30;;;;;;4994414;28;20092;-77
2021/07/21 09:21:08;;;;;;;20.63;13.73;;;34.10;54.40;;;;;;4993831;28;20145;-77
2021/07/21 09:23:58;;;;;;;19.77;14.32;;;34.00;54.90;;;;;;4993728;28;20027;-76
2021/07/21 09:26:27;;;;;;;25.80;16.27;;;33.90;55.10;;;;;;4993586;28;20030;-77
2021/07/21 09:28:53;;;;;;;29.13;15.68;;;33.90;55.30;;;;;;4993814;28;20416;-77
2021/07/21 09:31:48;;;;;;;21.77;13.13;;;34.00;55.40;;;;;;4993281;28;20322;-78
2021/07/21 09:34:16;;;;;;;22.30;13.23;;;33.90;55.20;;;;;;4974117;28;20452;-77
2021/07/21 09:36:42;;;;;;;28.52;14.77;;;33.70;55.10;;;;;;4993262;28;20495;-78
2021/07/21 09:39:10;;;;;;;18.92;14.13;;;33.40;55.30;;;;;;4993137;28;20081;-77
2021/07/21 09:41:48;;;;;;;21.33;13.38;;;33.00;56.40;;;;;;4993149;28;20030;-77
2021/07/21 09:44:14;;;;;;;18.40;14.18;;;32.60;56.30;;;;;;4993209;28;20026;-78
2021/07/21 09:46:39;;;;;;;18.50;13.10;;;32.20;56.80;;;;;;4993988;28;20019;-78
2021/07/21 09:49:19;;;;;;;20.98;13.57;;;31.90;57.20;;;;;;4994222;28;20396;-78
2021/07/21 09:51:45;;;;;;;23.15;11.77;;;31.70;57.70;;;;;;4993252;28;20496;-77
2021/07/21 09:54:13;;;;;;;18.15;12.80;;;31.50;58.00;;;;;;4993437;28;20019;-78
2021/07/21 09:56:38;;;;;;;16.42;12.27;;;31.40;58.30;;;;;;4993312;28;20029;-77
2021/07/21 09:59:19;;;;;;;17.38;12.43;;;31.20;58.40;;;;;;4993211;28;20380;-76
2021/07/21 10:01:45;;;;;;;16.37;12.27;;;31.10;58.70;;;;;;4975718;28;20026;-78
2021/07/21 10:04:10;;;;;;;19.20;13.57;;;31.00;59.00;;;;;;4992316;28;20029;-77
2021/07/21 10:06:40;;;;;;;19.42;12.80;;;31.00;59.20;;;;;;4992854;28;20105;-80
2021/07/21 10:09:06;;;;;;;18.27;13.32;;;30.90;59.50;;;;;;4992993;28;20161;-75
2021/07/21 10:11:40;;;;;;;19.45;13.52;;;30.90;59.70;;;;;;4993105;28;20054;-77
2021/07/21 10:14:11;;;;;;;19.23;13.13;;;30.70;59.80;;;;;;4975489;28;20026;-77
2021/07/21 10:16:41;;;;;;;18.77;12.88;;;30.60;60.00;;;;;;4992993;28;20097;-77
2021/07/21 10:19:15;;;;;;;21.15;13.52;;;30.40;60.20;;;;;;4992815;28;20092;-77
2021/07/21 10:21:46;;;;;;;18.88;13.07;;;30.20;60.80;;;;;;4992329;28;20024;-77
2021/07/21 10:24:13;;;;;;;16.65;13.45;;;30.10;61.00;;;;;;4992626;28;20500;-77
2021/07/21 10:26:41;;;;;;;20.90;13.30;;;30.00;61.20;;;;;;4992646;28;20026;-77
2021/07/21 10:29:07;;;;;;;20.05;13.18;;;30.00;61.50;;;;;;4975055;28;20023;-77
2021/07/21 10:31:33;;;;;;;23.42;12.35;;;29.90;61.70;;;;;;4992611;28;20022;-77
2021/07/21 10:34:00;;;;;;;20.17;13.70;;;29.90;61.90;;;;;;4992639;28;20022;-77
2021/07/21 10:36:26;;;;;;;20.33;12.85;;;29.80;62.00;;;;;;4992819;28;20030;-84
2021/07/21 10:38:52;;;;;;;23.52;17.02;;;29.80;62.10;;;;;;4992673;28;20049;-77
2021/07/21 10:41:19;;;;;;;22.52;12.93;;;29.80;62.30;;;;;;4998764;28;20029;-78
2021/07/21 10:43:56;;;;;;;18.50;13.15;;;29.80;62.30;;;;;;4981095;28;20062;-77
2021/07/21 10:46:38;;;;;;;21.30;13.38;;;29.80;62.40;;;;;;5001679;28;20240;-78
2021/07/21 10:49:15;;;;;;;19.27;12.00;;;29.70;62.40;;;;;;4992122;28;20028;-80
2021/07/21 10:55:46;;;;;;;18.85;13.13;;;29.60;62.60;;;;;;4992811;28;20069;-77
2021/07/21 11:00:32;;;;;;;18.35;12.38;;;29.40;62.80;;;;;;4992168;28;20129;-77
2021/07/21 11:03:28;;;;;;;20.17;12.52;;;29.30;63.10;;;;;;4992617;28;20034;-76
2021/07/21 11:06:04;;;;;;;16.67;12.57;;;29.20;63.40;;;;;;4992060;28;20022;-76
2021/07/21 11:08:30;;;;;;;23.70;13.70;;;29.10;63.60;;;;;;4992593;28;20053;-78
2021/07/21 11:11:17;;;;;;;21.08;12.40;;;29.00;63.90;;;;;;4992651;28;20861;-77
2021/07/21 11:13:43;;;;;;;18.35;12.45;;;28.90;64.30;;;;;;4991713;28;20029;-77
2021/07/21 11:16:41;;;;;;;21.08;12.77;;;29.00;64.60;;;;;;4991651;28;20030;-77
2021/07/21 11:19:28;;;;;;;17.50;11.77;;;29.00;64.70;;;;;;4991811;28;20026;-77
2021/07/21 11:22:05;;;;;;;23.55;13.43;;;29.00;64.60;;;;;;4991081;28;20034;-76
2021/07/21 11:25:09;;;;;;;16.05;11.52;;;29.10;64.50;;;;;;4977030;28;20027;-76
2021/07/21 11:27:38;;;;;;;17.55;11.25;;;29.10;64.50;;;;;;5011215;28;20048;-76
2021/07/21 11:30:24;;;;;;;19.20;12.23;;;29.20;64.40;;;;;;5011234;28;20097;-76
2021/07/21 11:32:50;;;;;;;19.90;13.13;;;29.30;64.50;;;;;;5010669;28;20026;-76
2021/07/21 11:35:41;;;;;;;23.67;13.63;;;29.40;64.30;;;;;;5010718;28;20030;-82
2021/07/21 11:38:40;;;;;;;21.87;12.77;;;29.50;64.10;;;;;;5011274;28;20399;-74
2021/07/21 11:41:05;;;;;;;16.52;12.30;;;29.60;63.90;;;;;;5010862;28;20300;-75
2021/07/21 11:43:33;;;;;;;19.17;11.70;;;29.60;63.70;;;;;;5010921;28;20119;-73
2021/07/21 11:46:07;;;;;;;20.58;12.02;;;29.70;63.60;;;;;;5011484;28;20519;-73
2021/07/21 11:48:33;;;;;;;19.38;12.32;;;29.70;63.40;;;;;;5011395;28;20038;-73
2021/07/21 11:50:59;;;;;;;23.65;12.20;;;29.80;63.30;;;;;;5010719;28;20042;-73
2021/07/21 11:53:25;;;;;;;21.92;11.38;;;29.80;63.20;;;;;;4992989;28;20487;-73
2021/07/21 11:55:51;;;;;;;18.83;11.02;;;29.90;63.10;;;;;;5010926;28;20034;-73
2021/07/21 11:58:17;;;;;;;15.85;11.52;;;30.00;62.80;;;;;;5011086;28;20116;-74
2021/07/21 12:00:51;;;;;;;17.63;10.85;;;30.00;62.60;;;;;;5010823;28;20028;-73
2021/07/21 12:03:16;;;;;;;13.93;10.45;;;30.10;62.10;;;;;;5011029;28;20018;-74
2021/07/21 12:05:57;;;;;;;18.95;11.45;;;30.10;61.70;;;;;;5010713;28;20033;-74
2021/07/21 12:08:23;;;;;;;15.00;10.07;;;30.10;61.40;;;;;;5011199;28;20045;-74
2021/07/21 12:10:49;;;;;;;12.77;10.65;;;30.10;61.40;;;;;;5011384;28;20312;-74
2021/07/21 12:13:19;;;;;;;14.23;10.60;;;30.10;61.40;;;;;;4993544;28;20579;-73
2021/07/21 12:15:46;;;;;;;17.20;10.48;;;30.00;61.20;;;;;;5010798;28;20022;-74
2021/07/21 12:18:14;;;;;;;17.80;10.57;;;30.00;61.30;;;;;;5011120;28;20383;-73
2021/07/21 12:20:42;;;;;;;17.48;10.52;;;29.90;61.30;;;;;;5010962;28;20034;-74
2021/07/21 12:23:08;;;;;;;16.70;10.60;;;29.80;61.50;;;;;;5011045;28;20021;-74
2021/07/21 12:25:34;;;;;;;16.05;11.13;;;29.70;61.60;;;;;;5010771;28;20088;-75
2021/07/21 12:28:01;;;;;;;16.67;10.73;;;29.60;61.80;;;;;;5011700;28;20444;-75
2021/07/21 12:30:33;;;;;;;20.40;10.77;;;29.50;62.20;;;;;;5014208;28;20401;-75
2021/07/21 12:32:59;;;;;;;14.70;10.30;;;29.40;62.50;;;;;;5014403;28;20026;-73
2021/07/21 12:35:27;;;;;;;18.20;10.88;;;29.30;62.70;;;;;;5014317;28;20030;-74
2021/07/21 12:37:54;;;;;;;18.08;9.90;;;29.20;63.00;;;;;;5014236;28;20438;-73
2021/07/21 12:40:26;;;;;;;16.92;10.25;;;29.20;63.30;;;;;;5014052;28;20049;-73
2021/07/21 12:42:55;;;;;;;14.52;10.27;;;29.00;63.50;;;;;;5014099;28;20537;-74
2021/07/21 12:45:24;;;;;;;14.15;10.40;;;29.00;63.70;;;;;;5014359;28;20434;-74
2021/07/21 12:47:55;;;;;;;16.17;10.35;;;28.80;63.80;;;;;;5014369;28;20018;-74
2021/07/21 12:50:27;;;;;;;23.50;10.27;;;28.80;64.00;;;;;;5013965;28;20041;-74